createdAt,value
2024-03-26T00:00:57.223Z,10.40
2024-03-26T00:03:25.595Z,11.30
2024-03-26T00:05:53.973Z,11.40
2024-03-26T00:08:22.131Z,10.10
2024-03-26T00:10:50.466Z,12.00
2024-03-26T00:13:21.910Z,11.10
2024-03-26T00:15:50.249Z,11.90
2024-03-26T00:18:18.492Z,13.70
2024-03-26T00:20:46.796Z,13.10
2024-03-26T00:23:18.342Z,11.80
2024-03-26T00:25:46.711Z,10.00
2024-03-26T00:28:15.035Z,10.90
2024-03-26T00:30:43.514Z,10.40
2024-03-26T00:33:11.790Z,9.30
2024-03-26T00:35:40.089Z,10.00
2024-03-26T00:38:09.066Z,12.70
2024-03-26T00:40:37.951Z,12.00
2024-03-26T00:43:06.388Z,11.80
2024-03-26T00:45:38.461Z,8.90
2024-03-26T00:48:09.831Z,9.70
2024-03-26T00:50:44.023Z,13.50
2024-03-26T00:53:13.162Z,10.80
2024-03-26T00:55:44.747Z,11.10
2024-03-26T00:58:16.995Z,10.50
2024-03-26T01:00:55.406Z,11.40
2024-03-26T01:03:51.304Z,12.20
2024-03-26T01:06:20.351Z,13.20
2024-03-26T01:09:04.283Z,10.40
2024-03-26T01:11:35.237Z,9.80
2024-03-26T01:14:03.663Z,10.20
2024-03-26T01:16:43.822Z,10.90
2024-03-26T01:19:15.259Z,11.00
2024-03-26T01:21:47.061Z,10.20
2024-03-26T01:24:15.460Z,9.90
2024-03-26T01:26:49.745Z,10.90
2024-03-26T01:29:21.869Z,11.40
2024-03-26T01:31:50.534Z,11.70
2024-03-26T01:34:21.954Z,10.30
2024-03-26T01:36:50.308Z,12.60
2024-03-26T01:39:18.640Z,11.90
2024-03-26T01:41:51.597Z,10.40
2024-03-26T01:44:26.257Z,9.80
2024-03-26T01:50:17.748Z,10.00
2024-03-26T01:53:12.123Z,11.60
2024-03-26T01:55:44.109Z,10.10
2024-03-26T01:58:12.857Z,9.60
2024-03-26T02:00:43.049Z,11.00
2024-03-26T02:03:11.702Z,13.70
2024-03-26T02:05:42.081Z,12.00
2024-03-26T02:08:13.316Z,11.60
2024-03-26T02:10:41.891Z,10.80
2024-03-26T02:13:13.595Z,10.90
2024-03-26T02:15:41.875Z,13.30
2024-03-26T02:18:14.797Z,12.60
2024-03-26T02:20:44.155Z,17.00
2024-03-26T02:23:13.251Z,12.80
2024-03-26T02:25:41.506Z,13.70
2024-03-26T02:28:09.833Z,12.30
2024-03-26T02:30:38.137Z,12.80
2024-03-26T02:33:14.446Z,14.50
2024-03-26T02:35:44.190Z,13.10
2024-03-26T02:38:13.697Z,12.00
2024-03-26T02:40:48.333Z,14.70
2024-03-26T02:43:21.003Z,15.20
2024-03-26T02:45:51.297Z,13.30
2024-03-26T02:48:19.988Z,16.60
2024-03-26T02:50:53.669Z,12.50
2024-03-26T02:54:03.043Z,14.20
2024-03-26T02:56:31.479Z,12.10
2024-03-26T03:02:39.667Z,14.70
2024-03-26T03:05:11.688Z,14.40
2024-03-26T03:07:41.753Z,15.70
2024-03-26T03:10:10.925Z,15.90
2024-03-26T03:12:42.928Z,17.20
2024-03-26T03:15:11.669Z,17.00
2024-03-26T03:17:40.288Z,17.80
2024-03-26T03:20:13.453Z,16.30
2024-03-26T03:22:50.353Z,15.40
2024-03-26T03:25:19.034Z,14.40
2024-03-26T03:27:47.755Z,13.70
2024-03-26T03:30:16.559Z,12.40
2024-03-26T03:32:45.260Z,12.80
2024-03-26T03:35:14.088Z,14.70
2024-03-26T03:37:42.678Z,14.10
2024-03-26T03:40:15.121Z,12.70
2024-03-26T03:42:59.772Z,13.50
2024-03-26T03:45:30.264Z,14.50
2024-03-26T03:47:59.180Z,12.50
2024-03-26T03:50:40.425Z,13.30
2024-03-26T03:53:12.166Z,14.20
2024-03-26T03:55:44.169Z,28.70
2024-03-26T03:58:16.679Z,21.00
2024-03-26T04:00:51.692Z,14.20
2024-03-26T04:03:20.476Z,18.00
2024-03-26T04:05:58.238Z,16.20
2024-03-26T04:08:27.447Z,16.20
2024-03-26T04:10:59.089Z,15.90
2024-03-26T04:13:33.495Z,16.50
2024-03-26T04:16:06.155Z,14.60
2024-03-26T04:18:40.294Z,17.00
2024-03-26T04:24:03.625Z,17.20
2024-03-26T04:26:32.671Z,17.30
2024-03-26T04:29:01.629Z,14.60
2024-03-26T04:31:30.534Z,18.30
2024-03-26T04:33:59.284Z,16.40
2024-03-26T04:36:34.231Z,16.90
2024-03-26T04:39:04.035Z,21.30
2024-03-26T04:41:32.949Z,15.50
2024-03-26T04:44:01.870Z,18.30
2024-03-26T04:46:33.981Z,16.30
2024-03-26T04:49:04.360Z,16.40
2024-03-26T04:51:33.434Z,15.90
2024-03-26T04:54:03.224Z,17.50
2024-03-26T04:56:32.123Z,16.70
2024-03-26T04:59:01.172Z,16.50
2024-03-26T05:01:30.689Z,17.60
2024-03-26T05:03:59.473Z,18.00
2024-03-26T05:06:30.921Z,17.70
2024-03-26T05:09:00.031Z,17.20
2024-03-26T05:11:30.060Z,20.40
2024-03-26T05:14:03.757Z,21.30
2024-03-26T05:16:33.842Z,26.30
2024-03-26T05:19:02.684Z,19.30
2024-03-26T05:21:31.649Z,20.00
2024-03-26T05:24:00.769Z,18.70
2024-03-26T05:26:30.411Z,18.30
2024-03-26T05:28:59.493Z,19.10
2024-03-26T05:31:28.208Z,18.10
2024-03-26T05:33:59.906Z,14.90
2024-03-26T05:36:30.627Z,18.10
2024-03-26T05:39:14.407Z,18.20
2024-03-26T05:41:43.615Z,19.00
2024-03-26T05:44:15.444Z,17.40
2024-03-26T05:46:44.227Z,23.60
2024-03-26T05:49:13.211Z,18.00
2024-03-26T05:51:41.829Z,19.40
2024-03-26T05:54:10.595Z,16.80
2024-03-26T05:56:39.282Z,17.20
2024-03-26T05:59:09.418Z,16.30
2024-03-26T06:01:40.017Z,17.30
2024-03-26T06:04:29.489Z,20.20
2024-03-26T06:06:58.419Z,21.70
2024-03-26T06:09:27.286Z,19.00
2024-03-26T06:12:00.731Z,18.10
2024-03-26T06:14:29.439Z,17.00
2024-03-26T06:16:58.418Z,19.60
2024-03-26T06:19:27.405Z,19.00
2024-03-26T06:21:59.382Z,18.50
2024-03-26T06:24:27.997Z,21.30
2024-03-26T06:26:56.737Z,20.80
2024-03-26T06:29:25.754Z,21.50
2024-03-26T06:31:54.501Z,18.60
2024-03-26T06:34:23.233Z,18.00
2024-03-26T06:36:52.864Z,19.80
2024-03-26T06:39:23.793Z,19.50
2024-03-26T06:41:55.926Z,18.10
2024-03-26T06:44:25.072Z,16.90
2024-03-26T06:46:58.336Z,19.40
2024-03-26T06:49:27.070Z,19.20
2024-03-26T06:51:58.172Z,20.20
2024-03-26T06:54:26.975Z,19.90
2024-03-26T06:56:55.727Z,19.90
2024-03-26T06:59:24.571Z,18.40
2024-03-26T07:10:26.511Z,20.00
2024-03-26T07:12:56.321Z,17.60
2024-03-26T07:15:27.492Z,23.70
2024-03-26T07:17:56.148Z,17.70
2024-03-26T07:23:34.849Z,19.60
2024-03-26T07:26:03.706Z,18.00
2024-03-26T07:28:39.987Z,22.10
2024-03-26T07:31:14.556Z,21.70
2024-03-26T07:33:48.843Z,18.00
2024-03-26T07:36:37.129Z,19.30
2024-03-26T07:39:21.781Z,17.30
2024-03-26T07:41:51.057Z,21.10
2024-03-26T07:44:19.709Z,21.40
2024-03-26T07:46:48.490Z,22.10
2024-03-26T07:49:17.198Z,17.30
2024-03-26T08:02:01.724Z,18.20
2024-03-26T08:04:30.339Z,17.70
2024-03-26T08:06:59.100Z,18.60
2024-03-26T08:09:28.328Z,16.10
2024-03-26T08:11:57.059Z,17.40
2024-03-26T08:14:29.962Z,19.40
2024-03-26T08:17:02.778Z,18.20
2024-03-26T08:19:35.764Z,17.00
2024-03-26T08:22:07.586Z,17.10
2024-03-26T08:24:36.521Z,18.60
2024-03-26T08:27:09.246Z,18.10
2024-03-26T08:29:37.896Z,17.00
2024-03-26T08:32:15.677Z,15.20
2024-03-26T08:34:47.108Z,15.20
2024-03-26T08:37:21.212Z,13.90
2024-03-26T08:39:52.878Z,15.50
2024-03-26T08:42:33.142Z,15.30
2024-03-26T08:45:04.186Z,16.90
2024-03-26T08:47:53.002Z,15.20
2024-03-26T08:59:00.893Z,19.30
2024-03-26T09:01:35.076Z,20.10
2024-03-26T09:04:03.914Z,16.70
2024-03-26T09:06:36.656Z,22.60
2024-03-26T09:09:13.540Z,19.40
2024-03-26T09:11:45.908Z,16.00
2024-03-26T09:14:16.944Z,16.90
2024-03-26T09:16:48.840Z,18.50
2024-03-26T09:19:17.624Z,16.30
2024-03-26T09:21:52.388Z,18.70
2024-03-26T09:24:33.524Z,17.60
2024-03-26T09:27:08.720Z,16.20
2024-03-26T09:29:40.654Z,17.50
2024-03-26T09:32:28.603Z,18.80
2024-03-26T09:35:09.364Z,18.00
2024-03-26T09:37:52.794Z,15.70
2024-03-26T09:40:24.042Z,17.40
2024-03-26T09:43:01.119Z,18.10
2024-03-26T09:45:36.648Z,18.30
2024-03-26T09:48:09.703Z,14.20
2024-03-26T09:50:48.751Z,16.80
2024-03-26T09:53:21.614Z,18.10
2024-03-26T09:55:52.089Z,18.10
2024-03-26T09:58:21.287Z,15.30
2024-03-26T10:01:00.548Z,15.10
2024-03-26T10:03:41.034Z,16.90
2024-03-26T10:06:13.597Z,14.70
2024-03-26T10:08:45.946Z,15.40
2024-03-26T10:11:16.799Z,18.20
2024-03-26T10:13:45.740Z,19.10
2024-03-26T10:16:14.773Z,18.20
2024-03-26T10:18:45.755Z,19.70
2024-03-26T10:21:16.708Z,21.00
2024-03-26T10:26:45.876Z,18.90
2024-03-26T10:29:16.872Z,19.00
2024-03-26T10:31:53.152Z,19.60
2024-03-26T10:34:31.415Z,17.60
2024-03-26T10:37:25.262Z,15.30
2024-03-26T10:40:07.573Z,16.00
2024-03-26T10:43:07.586Z,17.60
2024-03-26T10:45:59.927Z,17.10
2024-03-26T10:53:03.175Z,16.10
2024-03-26T10:55:35.942Z,19.20
2024-03-26T10:58:12.833Z,14.00
2024-03-26T11:00:44.849Z,13.90
2024-03-26T11:03:17.461Z,19.40
2024-03-26T11:06:00.391Z,13.30
2024-03-26T11:08:40.866Z,12.30
2024-03-26T11:11:09.541Z,15.60
2024-03-26T11:13:43.004Z,15.40
2024-03-26T11:16:41.835Z,12.40
2024-03-26T11:19:27.700Z,14.70
2024-03-26T11:21:57.039Z,12.10
2024-03-26T11:24:37.319Z,15.00
2024-03-26T11:27:09.438Z,13.90
2024-03-26T11:29:42.675Z,11.80
2024-03-26T11:32:11.866Z,11.60
2024-03-26T11:34:43.206Z,11.60
2024-03-26T11:49:58.872Z,12.00
2024-03-26T11:52:27.762Z,11.50
2024-03-26T11:54:58.831Z,12.60
2024-03-26T11:57:27.957Z,13.00
2024-03-26T11:59:57.085Z,10.30
2024-03-26T12:02:27.118Z,16.10
2024-03-26T12:05:19.776Z,11.60
2024-03-26T12:07:50.337Z,10.00
2024-03-26T12:10:19.320Z,11.50
2024-03-26T12:12:48.204Z,11.40
2024-03-26T12:15:17.278Z,13.10
2024-03-26T12:17:46.400Z,10.90
2024-03-26T12:20:15.178Z,12.50
2024-03-26T12:22:43.983Z,12.40
2024-03-26T12:25:15.710Z,11.00
2024-03-26T12:27:46.648Z,12.80
2024-03-26T12:30:15.550Z,13.60
2024-03-26T12:32:44.366Z,10.60
2024-03-26T12:35:13.351Z,9.50
2024-03-26T12:37:43.341Z,10.10
2024-03-26T12:40:14.442Z,11.60
2024-03-26T12:42:43.176Z,15.50
2024-03-26T12:45:12.081Z,11.90
2024-03-26T12:47:40.889Z,11.90
2024-03-26T12:50:09.866Z,10.40
2024-03-26T12:52:43.860Z,8.50
2024-03-26T12:55:14.388Z,11.40
2024-03-26T12:57:44.567Z,11.00
2024-03-26T13:00:14.081Z,10.20
2024-03-26T13:02:42.728Z,8.40
2024-03-26T13:05:11.529Z,11.20
2024-03-26T13:07:40.281Z,9.40
2024-03-26T13:10:09.472Z,11.50
2024-03-26T13:12:38.208Z,8.50
2024-03-26T13:15:07.553Z,8.70
2024-03-26T13:17:36.988Z,11.20
2024-03-26T13:20:07.631Z,7.70
2024-03-26T13:22:36.336Z,8.50
2024-03-26T13:25:05.422Z,9.00
2024-03-26T13:27:34.139Z,9.00
2024-03-26T13:30:03.616Z,11.60
2024-03-26T13:32:32.288Z,12.40
2024-03-26T13:35:01.160Z,9.20
2024-03-26T13:37:30.653Z,9.30
2024-03-26T13:39:59.222Z,10.80
2024-03-26T13:42:27.861Z,12.60
2024-03-26T13:44:56.780Z,10.70
2024-03-26T13:47:26.407Z,11.20
2024-03-26T13:49:55.427Z,10.50
2024-03-26T13:52:26.879Z,11.90
2024-03-26T13:55:01.744Z,8.60
2024-03-26T13:57:30.797Z,12.50
2024-03-26T14:00:06.822Z,10.10
2024-03-26T14:02:44.203Z,9.80
2024-03-26T14:05:19.911Z,11.30
2024-03-26T14:11:08.934Z,10.20
2024-03-26T14:17:00.955Z,9.90
2024-03-26T14:19:36.488Z,8.80
2024-03-26T14:22:06.516Z,10.40
2024-03-26T14:24:45.786Z,12.40
2024-03-26T14:27:14.519Z,9.90
2024-03-26T14:29:49.380Z,9.50
2024-03-26T14:32:19.303Z,10.60
2024-03-26T14:34:49.573Z,13.20
2024-03-26T14:37:18.993Z,10.10
2024-03-26T14:39:47.947Z,13.20
2024-03-26T14:42:20.777Z,9.00
2024-03-26T14:44:49.814Z,12.00
2024-03-26T14:47:55.855Z,9.30
2024-03-26T14:50:49.760Z,8.80
2024-03-26T14:53:22.942Z,10.70
2024-03-26T14:55:51.846Z,7.70
2024-03-26T15:02:11.539Z,8.50
2024-03-26T15:04:40.459Z,8.50
2024-03-26T15:07:18.599Z,9.80
2024-03-26T15:10:08.059Z,8.80
2024-03-26T15:12:36.940Z,8.70
2024-03-26T15:15:14.186Z,7.10
2024-03-26T15:18:28.305Z,7.80
2024-03-26T15:24:19.227Z,9.00
2024-03-26T15:27:06.273Z,8.90
2024-03-26T15:34:11.707Z,8.90
2024-03-26T15:37:24.036Z,6.60
2024-03-26T16:15:30.142Z,10.60
2024-03-26T16:20:53.956Z,10.60
2024-03-26T16:23:42.986Z,9.10
2024-03-26T16:26:17.731Z,6.50
2024-03-26T16:36:20.877Z,7.20
2024-03-26T16:42:25.164Z,9.70
2024-03-26T16:45:07.539Z,6.10
2024-03-26T17:08:44.885Z,8.60
2024-03-26T17:22:12.909Z,6.70
2024-03-26T17:24:46.424Z,7.40
2024-03-26T17:27:18.459Z,7.60
2024-03-26T17:29:49.631Z,8.70
2024-03-26T17:33:34.110Z,6.30
2024-03-26T17:36:07.936Z,7.30
2024-03-26T17:38:36.390Z,5.80
2024-03-26T17:41:08.338Z,7.30
2024-03-26T17:46:49.286Z,6.20
2024-03-26T17:49:20.256Z,9.50
2024-03-26T17:54:34.186Z,6.70
2024-03-26T17:59:58.964Z,6.40
2024-03-26T18:02:29.910Z,6.20
2024-03-26T18:04:59.942Z,7.00
2024-03-26T18:07:45.934Z,5.70
2024-03-26T18:10:37.440Z,6.50
2024-03-26T18:13:07.433Z,5.70
2024-03-26T18:15:38.984Z,5.40
2024-03-26T18:21:07.506Z,8.10
2024-03-26T18:23:42.440Z,5.80
2024-03-26T18:26:11.522Z,9.10
2024-03-26T18:28:45.675Z,10.50
2024-03-26T18:34:09.172Z,9.70
2024-03-26T18:36:39.338Z,7.30
2024-03-26T18:39:08.540Z,9.30
2024-03-26T18:41:37.502Z,11.00
2024-03-26T18:44:08.391Z,7.60
2024-03-26T18:50:26.648Z,5.80
2024-03-26T18:53:01.377Z,6.90
2024-03-26T18:55:30.795Z,6.70
2024-03-26T18:58:07.281Z,5.90
2024-03-26T19:00:36.554Z,5.80
2024-03-26T19:03:05.944Z,6.90
2024-03-26T19:05:38.832Z,8.00
2024-03-26T19:08:12.806Z,6.00
2024-03-26T19:10:46.649Z,7.30
2024-03-26T19:13:15.988Z,6.40
2024-03-26T19:15:48.143Z,10.20
2024-03-26T19:18:17.545Z,5.30
2024-03-26T19:20:54.408Z,13.60
2024-03-26T19:23:26.856Z,6.20
2024-03-26T19:26:10.526Z,6.30
2024-03-26T19:28:43.088Z,7.60
2024-03-26T19:31:11.825Z,8.20
2024-03-26T19:33:43.558Z,6.20
2024-03-26T19:36:15.595Z,5.90
2024-03-26T19:38:44.939Z,8.60
2024-03-26T19:41:15.906Z,5.60
2024-03-26T19:43:45.479Z,6.20
2024-03-26T19:46:14.925Z,7.00
2024-03-26T19:48:44.661Z,5.40
2024-03-26T19:51:15.960Z,6.60
2024-03-26T19:53:44.864Z,11.70
2024-03-26T19:56:16.571Z,7.00
2024-03-26T19:58:45.412Z,5.40
2024-03-26T20:01:19.538Z,6.40
2024-03-26T20:03:48.208Z,5.10
2024-03-26T20:06:17.648Z,5.30
2024-03-26T20:08:51.027Z,5.80
2024-03-26T20:11:23.565Z,11.70
2024-03-26T20:29:52.254Z,6.80
2024-03-26T20:32:20.531Z,5.70
2024-03-26T20:34:49.112Z,6.80
2024-03-26T20:37:17.434Z,6.10
2024-03-26T20:39:49.042Z,7.30
2024-03-26T20:42:20.410Z,6.30
2024-03-26T20:44:48.806Z,6.10
2024-03-26T20:47:17.048Z,6.00
2024-03-26T20:49:45.329Z,6.50
2024-03-26T20:52:28.941Z,5.80
2024-03-26T20:54:57.201Z,6.30
2024-03-26T20:57:25.504Z,7.50
2024-03-26T20:59:56.774Z,5.50
2024-03-26T21:02:25.382Z,5.70
2024-03-26T21:04:59.169Z,7.50
2024-03-26T21:07:30.005Z,9.30
2024-03-26T21:09:58.214Z,8.10
2024-03-26T21:12:29.133Z,5.10
2024-03-26T21:24:43.920Z,6.20
2024-03-26T21:27:12.795Z,5.90
2024-03-26T21:29:43.299Z,6.10
2024-03-26T21:32:12.006Z,5.50
2024-03-26T21:34:40.781Z,5.40
2024-03-26T21:48:16.352Z,6.20
2024-03-26T21:50:57.460Z,9.80
2024-03-26T21:53:26.156Z,6.40
2024-03-26T21:56:05.144Z,5.50
2024-03-26T22:01:49.398Z,6.00
2024-03-26T22:04:49.689Z,9.00
2024-03-26T22:07:50.340Z,8.70
2024-03-26T22:10:38.761Z,10.10
2024-03-26T22:13:52.350Z,6.60
2024-03-26T22:17:42.386Z,6.80
2024-03-26T22:20:08.519Z,6.80
2024-03-26T22:26:14.058Z,6.30
2024-03-26T22:29:22.076Z,7.40
2024-03-26T22:34:41.782Z,6.90
2024-03-26T22:37:11.245Z,6.30
2024-03-26T22:39:48.692Z,6.90
2024-03-26T22:42:17.186Z,5.30
2024-03-26T22:45:02.675Z,11.90
2024-03-26T22:47:31.124Z,9.00
2024-03-26T22:50:06.596Z,8.10
2024-03-26T23:06:25.834Z,6.30
2024-03-26T23:08:54.090Z,6.20
2024-03-26T23:11:22.990Z,5.80
2024-03-26T23:13:51.986Z,9.50
2024-03-26T23:16:20.511Z,6.30
2024-03-26T23:18:48.717Z,5.30
2024-03-26T23:21:17.244Z,5.20
2024-03-26T23:23:46.250Z,8.40
2024-03-26T23:26:22.708Z,5.50
2024-03-26T23:41:51.220Z,5.80
2024-03-26T23:44:20.210Z,6.00
2024-03-26T23:46:49.005Z,6.70
2024-03-26T23:49:38.371Z,6.30
2024-03-26T23:52:07.607Z,5.20
